Time;durP1;ratioP1;P1;durP2;ratioP2;P2;SDS_P1;SDS_P2;PMS_P1;PMS_P2;Temp;Humidity;BMP_temperature;BMP_pressure;BME280_temperature;BME280_humidity;BME280_pressure;Samples;Min_cycle;Max_cycle;Signal;HPM_P1;HPM_P2
2022/12/05 00:02:14;;;;;;;3.80;0.67;;;;;;;10.10;100.00;96218.38;5074098;28;20432;-53
2022/12/05 00:04:43;;;;;;;0.63;0.60;;;;;;;10.22;100.00;96226.25;5073830;28;20429;-53
2022/12/05 00:07:11;;;;;;;0.40;0.40;;;;;;;9.98;100.00;96222.97;5073549;28;20422;-54
2022/12/05 00:09:40;;;;;;;0.47;0.40;;;;;;;10.08;100.00;96217.81;5074048;28;20434;-53
2022/12/05 00:12:08;;;;;;;2.50;0.77;;;;;;;10.03;100.00;96222.25;5072714;28;20435;-53
2022/12/05 00:14:36;;;;;;;0.50;0.40;;;;;;;9.93;100.00;96212.31;5073361;28;20555;-53
2022/12/05 00:17:04;;;;;;;0.67;0.67;;;;;;;9.91;100.00;96210.94;5073691;28;20432;-53
2022/12/05 00:19:35;;;;;;;0.60;0.60;;;;;;;9.81;100.00;96216.09;5073622;28;20477;-53
2022/12/05 00:22:04;;;;;;;0.67;0.40;;;;;;;9.84;100.00;96211.09;5073409;28;20433;-53
2022/12/05 00:24:32;;;;;;;0.50;0.50;;;;;;;9.84;100.00;96213.75;5072673;28;20472;-54
2022/12/05 00:27:00;;;;;;;0.70;0.70;;;;;;;9.81;100.00;96219.56;5073438;28;20431;-54
2022/12/05 00:29:28;;;;;;;0.97;0.97;;;;;;;10.16;100.00;96209.50;5072910;28;20427;-53
2022/12/05 00:31:57;;;;;;;0.30;0.20;;;;;;;10.19;100.00;96209.00;5072792;28;20941;-53
2022/12/05 00:34:25;;;;;;;0.30;0.20;;;;;;;10.25;100.00;96214.34;5073397;28;20428;-53
2022/12/05 00:36:55;;;;;;;0.40;0.30;;;;;;;10.13;100.00;96215.28;5073542;28;20823;-53
2022/12/05 00:39:23;;;;;;;0.43;0.43;;;;;;;10.26;100.00;96215.97;5072425;28;20440;-54
2022/12/05 00:41:52;;;;;;;0.33;0.27;;;;;;;10.13;100.00;96219.78;5072964;28;20522;-54
2022/12/05 00:44:20;;;;;;;0.50;0.33;;;;;;;9.74;100.00;96229.47;5072570;28;20428;-54
2022/12/05 00:46:48;;;;;;;0.50;0.40;;;;;;;9.71;100.00;96216.75;5072280;28;20456;-54
2022/12/05 00:49:16;;;;;;;0.30;0.20;;;;;;;9.97;100.00;96218.72;5073127;28;20431;-54
2022/12/05 00:51:45;;;;;;;6.40;0.60;;;;;;;10.15;100.00;96221.13;5072971;28;20576;-53
2022/12/05 00:54:16;;;;;;;0.30;0.20;;;;;;;10.27;100.00;96213.06;5073214;28;20798;-53
2022/12/05 00:56:45;;;;;;;2.03;0.47;;;;;;;10.27;100.00;96214.94;5072647;28;20839;-53
2022/12/05 00:59:16;;;;;;;2.00;0.40;;;;;;;10.04;100.00;96155.78;5073299;28;20425;-54
2022/12/05 01:01:46;;;;;;;2.00;0.63;;;;;;;10.32;100.00;96212.34;5073292;28;20511;-54
2022/12/05 01:04:17;;;;;;;0.70;0.70;;;;;;;10.09;100.00;96202.75;5072964;28;20435;-54
2022/12/05 01:06:46;;;;;;;0.30;0.30;;;;;;;10.20;100.00;96197.34;5072855;28;20471;-54
2022/12/05 01:09:20;;;;;;;0.30;0.20;;;;;;;10.23;100.00;96208.50;5071801;28;20431;-54
2022/12/05 01:11:48;;;;;;;0.63;0.40;;;;;;;10.28;100.00;96212.03;5071969;28;20525;-53
2022/12/05 01:14:19;;;;;;;0.50;0.50;;;;;;;10.34;100.00;96215.56;5072803;28;20908;-53
2022/12/05 01:16:48;;;;;;;0.40;0.33;;;;;;;9.24;100.00;96086.63;5072702;28;20494;-54
2022/12/05 01:19:22;;;;;;;0.30;0.20;;;;;;;10.03;100.00;96198.41;5072343;28;20901;-53
2022/12/05 01:21:51;;;;;;;0.70;0.70;;;;;;;9.38;100.00;96076.53;5071965;28;20435;-54
2022/12/05 01:24:22;;;;;;;0.50;0.50;;;;;;;10.28;100.00;96195.31;5071198;28;20892;-53
2022/12/05 01:26:50;;;;;;;0.30;0.30;;;;;;;10.37;100.00;96189.38;5071352;28;20432;-54
2022/12/05 01:29:21;;;;;;;2.10;0.33;;;;;;;10.42;99.76;96193.94;5072202;28;20426;-54
2022/12/05 01:31:49;;;;;;;1.70;1.13;;;;;;;10.39;100.00;96195.22;5072757;28;20917;-53
2022/12/05 01:34:18;;;;;;;0.43;0.40;;;;;;;10.36;100.00;96187.75;5072415;28;20437;-53
2022/12/05 01:36:47;;;;;;;0.40;0.30;;;;;;;10.40;100.00;96186.22;5072021;28;20506;-53
2022/12/05 01:39:16;;;;;;;3.60;0.60;;;;;;;10.39;100.00;96189.13;5071054;28;20448;-54
2022/12/05 01:41:49;;;;;;;0.40;0.30;;;;;;;10.39;100.00;96179.31;5071894;28;20539;-54
2022/12/05 01:44:54;;;;;;;0.30;0.20;;;;;;;10.37;100.00;96188.56;5071854;28;20427;-53
2022/12/05 01:47:25;;;;;;;0.70;0.70;;;;;;;10.39;100.00;96189.13;5072377;28;20438;-53
2022/12/05 01:49:53;;;;;;;0.30;0.20;;;;;;;10.36;100.00;96179.00;5071538;28;20821;-53
2022/12/05 01:52:25;;;;;;;0.50;0.40;;;;;;;10.39;100.00;96176.69;5071474;28;20492;-54
2022/12/05 01:54:56;;;;;;;0.30;0.30;;;;;;;10.36;100.00;96179.00;5071872;28;20433;-53
2022/12/05 01:57:26;;;;;;;0.77;0.60;;;;;;;10.29;100.00;96173.91;5071800;28;20562;-53
2022/12/05 01:59:59;;;;;;;0.40;0.30;;;;;;;9.95;100.00;96106.13;5071777;28;20527;-54
2022/12/05 02:02:29;;;;;;;0.40;0.37;;;;;;;10.24;100.00;96171.19;5072248;28;20430;-53
2022/12/05 02:05:05;;;;;;;0.73;0.37;;;;;;;10.30;100.00;96169.38;5071746;28;20456;-53
2022/12/05 02:07:34;;;;;;;0.60;0.60;;;;;;;10.29;100.00;96176.56;5071662;28;20534;-54
2022/12/05 02:10:04;;;;;;;0.60;0.60;;;;;;;10.28;100.00;96182.06;5071736;28;20481;-54
2022/12/05 02:12:35;;;;;;;0.40;0.30;;;;;;;10.31;100.00;96169.16;5071687;28;20447;-54
2022/12/05 02:15:28;;;;;;;1.23;0.90;;;;;;;10.37;100.00;96180.63;5071636;28;20425;-53
2022/12/05 02:18:14;;;;;;;1.80;0.87;;;;;;;10.22;100.00;96185.72;5071761;28;20461;-53
2022/12/05 02:20:55;;;;;;;0.40;0.40;;;;;;;10.08;100.00;96167.50;5071724;28;20523;-53
2022/12/05 02:23:42;;;;;;;0.97;0.50;;;;;;;10.05;100.00;96162.69;5071408;28;20969;-54
2022/12/05 02:26:45;;;;;;;0.60;0.60;;;;;;;9.84;100.00;96139.63;5071656;28;20448;-53
2022/12/05 02:29:33;;;;;;;0.30;0.30;;;;;;;9.99;100.00;96155.72;5071364;28;20442;-53
2022/12/05 02:32:10;;;;;;;0.50;0.40;;;;;;;10.04;100.00;96161.06;5071370;28;20421;-53
2022/12/05 02:34:46;;;;;;;0.40;0.40;;;;;;;9.94;100.00;96163.59;5072407;28;20436;-53
2022/12/05 02:37:21;;;;;;;0.30;0.30;;;;;;;9.87;100.00;96191.28;5075364;28;20562;-53
2022/12/05 02:39:56;;;;;;;0.50;0.50;;;;;;;10.03;100.00;96163.97;5075436;28;20446;-54
2022/12/05 02:42:32;;;;;;;0.40;0.30;;;;;;;9.26;100.00;96028.22;5075296;28;20539;-54
2022/12/05 02:45:06;;;;;;;1.07;1.07;;;;;;;9.97;100.00;96141.91;5075486;28;20504;-54
2022/12/05 02:47:39;;;;;;;0.30;0.20;;;;;;;10.11;100.00;96166.22;5075332;28;20507;-54
2022/12/05 02:50:12;;;;;;;3.20;0.40;;;;;;;10.22;100.00;96164.53;5074639;28;20950;-54
2022/12/05 02:52:42;;;;;;;0.60;0.40;;;;;;;10.05;100.00;96138.03;5074638;28;21066;-54
2022/12/05 02:55:10;;;;;;;0.47;0.40;;;;;;;10.14;100.00;96163.09;5075094;28;20427;-54
2022/12/05 02:57:42;;;;;;;1.27;1.27;;;;;;;10.17;100.00;96165.25;5074854;28;20914;-54
2022/12/05 03:00:12;;;;;;;0.30;0.20;;;;;;;10.13;100.00;96159.66;5074916;28;20951;-54
2022/12/05 03:02:42;;;;;;;0.30;0.30;;;;;;;10.06;100.00;96147.59;5075326;28;20490;-54
2022/12/05 03:05:20;;;;;;;1.33;1.33;;;;;;;9.86;100.00;96153.44;5074828;28;20437;-54
2022/12/05 03:07:52;;;;;;;1.03;1.03;;;;;;;9.90;100.00;96138.66;5074866;28;20512;-54
2022/12/05 03:10:23;;;;;;;0.40;0.30;;;;;;;9.93;100.00;96143.47;5074883;28;20430;-53
2022/12/05 03:12:56;;;;;;;1.17;1.00;;;;;;;9.71;100.00;96094.97;5075021;28;20486;-53
2022/12/05 03:15:28;;;;;;;0.50;0.47;;;;;;;10.05;100.00;96132.75;5074824;28;20860;-53
2022/12/05 03:18:05;;;;;;;0.40;0.30;;;;;;;10.10;100.00;96148.69;5074630;28;20473;-54
2022/12/05 03:20:37;;;;;;;0.50;0.40;;;;;;;10.03;100.00;96153.38;5074801;28;20482;-54
2022/12/05 03:23:12;;;;;;;1.17;0.53;;;;;;;10.01;100.00;96150.19;5074786;28;20888;-54
2022/12/05 03:25:49;;;;;;;0.47;0.47;;;;;;;10.00;100.00;96143.28;5074659;28;20507;-53
2022/12/05 03:28:23;;;;;;;0.60;0.47;;;;;;;9.98;100.00;96132.13;5074858;28;20475;-53
2022/12/05 03:30:55;;;;;;;0.57;0.50;;;;;;;10.10;100.00;96143.41;5074571;28;20441;-53
2022/12/05 03:33:30;;;;;;;0.40;0.40;;;;;;;10.12;100.00;96136.84;5074761;28;20445;-53
2022/12/05 03:36:03;;;;;;;2.40;0.60;;;;;;;10.16;100.00;96156.53;5074908;28;20485;-53
2022/12/05 03:38:35;;;;;;;0.60;0.60;;;;;;;10.17;100.00;96155.44;5074390;28;20440;-53
2022/12/05 03:41:09;;;;;;;0.50;0.50;;;;;;;10.10;100.00;96149.50;5074349;28;20428;-54
2022/12/05 03:43:46;;;;;;;0.50;0.30;;;;;;;10.12;100.00;96152.75;5074284;28;20970;-53
2022/12/05 03:46:22;;;;;;;0.40;0.30;;;;;;;10.13;100.00;96151.72;5074151;28;20966;-53
2022/12/05 03:48:56;;;;;;;0.40;0.40;;;;;;;10.12;100.00;96158.03;5074446;28;20461;-54
2022/12/05 03:51:43;;;;;;;1.10;0.70;;;;;;;9.17;100.00;96042.88;5073523;28;20429;-53
2022/12/05 03:54:18;;;;;;;0.60;0.60;;;;;;;9.87;100.00;96159.50;5073247;28;20439;-54
2022/12/05 03:56:53;;;;;;;0.80;0.80;;;;;;;9.67;100.00;96156.56;5073401;28;20468;-53
2022/12/05 03:59:30;;;;;;;0.67;0.67;;;;;;;9.75;100.00;96156.97;5073958;28;20798;-53
2022/12/05 04:02:02;;;;;;;1.53;0.90;;;;;;;9.69;100.00;96165.88;5073994;28;20515;-53
2022/12/05 04:04:37;;;;;;;1.90;0.97;;;;;;;9.75;100.00;96164.09;5073720;28;20483;-53
2022/12/05 04:07:08;;;;;;;0.70;0.60;;;;;;;9.83;100.00;96169.81;5074183;28;20434;-53
2022/12/05 04:09:41;;;;;;;2.30;0.40;;;;;;;9.88;100.00;96174.38;5073015;28;20442;-53
2022/12/05 04:12:14;;;;;;;0.43;0.30;;;;;;;9.83;100.00;96167.16;5072955;28;20440;-53
2022/12/05 04:14:47;;;;;;;0.63;0.63;;;;;;;9.78;100.00;96169.72;5074001;28;20447;-54
2022/12/05 04:17:24;;;;;;;0.40;0.40;;;;;;;9.75;100.00;96174.69;5073624;28;20473;-53
2022/12/05 04:22:54;;;;;;;1.47;0.40;;;;;;;9.54;100.00;96173.59;5073380;28;20426;-53
2022/12/05 04:25:33;;;;;;;0.50;0.50;;;;;;;9.51;100.00;96176.75;5073393;28;20523;-53
2022/12/05 04:28:15;;;;;;;1.47;1.47;;;;;;;9.36;100.00;96174.63;5073382;28;20974;-53
2022/12/05 04:30:54;;;;;;;0.60;0.60;;;;;;;9.33;100.00;96179.63;5073506;28;20464;-54
2022/12/05 04:33:31;;;;;;;1.57;0.40;;;;;;;9.25;100.00;96186.09;5073331;28;20434;-53
2022/12/05 04:36:07;;;;;;;0.50;0.50;;;;;;;9.28;100.00;96195.41;5073158;28;20450;-53
2022/12/05 04:38:43;;;;;;;0.40;0.40;;;;;;;9.18;100.00;96190.75;5073019;28;21001;-53
2022/12/05 04:41:15;;;;;;;0.43;0.43;;;;;;;9.22;100.00;96199.81;5073410;28;20789;-53
2022/12/05 04:43:46;;;;;;;0.50;0.50;;;;;;;9.20;100.00;96188.66;5072961;28;20430;-53
2022/12/05 04:46:18;;;;;;;1.03;0.50;;;;;;;9.20;100.00;96191.31;5073109;28;20506;-53
2022/12/05 04:48:51;;;;;;;0.40;0.30;;;;;;;9.20;100.00;96188.66;5073133;28;20455;-53
2022/12/05 04:51:25;;;;;;;0.50;0.50;;;;;;;9.01;100.00;96166.09;5072979;28;20598;-53
2022/12/05 04:53:57;;;;;;;0.30;0.30;;;;;;;9.01;100.00;96181.97;5072495;28;20433;-53
2022/12/05 04:56:29;;;;;;;0.50;0.50;;;;;;;9.08;100.00;96189.78;5073078;28;20923;-54
2022/12/05 04:58:57;;;;;;;3.40;1.80;;;;;;;9.11;100.00;96199.88;5072223;28;20628;-53
2022/12/05 05:01:30;;;;;;;0.53;0.53;;;;;;;8.93;100.00;96201.66;5072880;28;20438;-53
2022/12/05 05:04:03;;;;;;;0.30;0.30;;;;;;;8.82;100.00;96193.81;5072806;28;20441;-53
2022/12/05 05:06:32;;;;;;;0.30;0.20;;;;;;;8.76;100.00;96195.53;5072824;28;20506;-53
2022/12/05 05:09:01;;;;;;;0.40;0.40;;;;;;;8.37;100.00;96198.19;5072675;28;20439;-54
2022/12/05 05:11:32;;;;;;;0.73;0.73;;;;;;;8.46;100.00;96196.78;5072833;28;20644;-53
2022/12/05 05:14:01;;;;;;;0.80;0.80;;;;;;;8.48;100.00;96205.28;5071935;28;20430;-53
2022/12/05 05:16:32;;;;;;;0.60;0.53;;;;;;;8.54;100.00;96202.53;5072453;28;20589;-54
2022/12/05 05:19:00;;;;;;;0.40;0.30;;;;;;;8.32;100.00;96204.19;5072244;28;20478;-53
2022/12/05 05:21:31;;;;;;;0.93;0.93;;;;;;;8.48;100.00;96203.44;5072373;28;20871;-53
2022/12/05 05:24:01;;;;;;;1.50;1.50;;;;;;;8.11;100.00;96155.41;5072472;28;20470;-54
2022/12/05 05:26:30;;;;;;;1.00;1.00;;;;;;;8.23;100.00;96193.16;5072280;28;20518;-54
2022/12/05 05:28:59;;;;;;;0.50;0.50;;;;;;;8.07;100.00;96211.56;5072530;28;20438;-53
2022/12/05 05:31:27;;;;;;;0.63;0.60;;;;;;;8.09;100.00;96175.16;5072200;28;20911;-54
2022/12/05 05:33:57;;;;;;;1.03;1.03;;;;;;;8.37;100.00;96198.19;5071899;28;20463;-53
2022/12/05 05:36:27;;;;;;;0.80;0.73;;;;;;;8.48;100.00;96202.63;5072273;28;20434;-53
2022/12/05 05:38:57;;;;;;;1.40;1.10;;;;;;;8.57;100.00;96209.97;5072058;28;20477;-53
2022/12/05 05:41:29;;;;;;;0.87;0.83;;;;;;;8.22;100.00;96159.06;5072192;28;20529;-54
2022/12/05 05:43:58;;;;;;;2.43;1.67;;;;;;;8.07;100.00;96222.88;5071823;28;21018;-53
2022/12/05 05:46:28;;;;;;;3.83;3.37;;;;;;;8.07;100.00;96240.59;5072038;28;20434;-53
2022/12/05 05:48:57;;;;;;;3.20;2.90;;;;;;;8.22;100.00;96235.63;5071783;28;20434;-53
2022/12/05 05:51:28;;;;;;;1.67;1.57;;;;;;;8.42;100.00;96236.09;5071458;28;20418;-53
2022/12/05 05:53:57;;;;;;;4.93;4.17;;;;;;;8.40;100.00;96242.66;5071446;28;20942;-53
2022/12/05 05:56:27;;;;;;;1.70;1.60;;;;;;;8.64;100.00;96239.72;5071497;28;20422;-52
2022/12/05 05:58:57;;;;;;;1.13;1.13;;;;;;;8.85;100.00;96244.34;5071328;28;21024;-53
2022/12/05 06:01:25;;;;;;;0.67;0.67;;;;;;;8.75;100.00;96225.63;5071632;28;20991;-53
2022/12/05 06:03:54;;;;;;;5.40;1.47;;;;;;;8.02;100.00;96111.91;5071385;28;20473;-53
2022/12/05 06:06:23;;;;;;;1.50;1.40;;;;;;;7.46;100.00;96119.69;5071741;28;20453;-53
2022/12/05 06:08:53;;;;;;;1.83;1.43;;;;;;;8.85;100.00;96243.56;5070910;28;21113;-53
2022/12/05 06:11:23;;;;;;;0.60;0.60;;;;;;;8.74;100.00;96245.19;5071329;28;20426;-53
2022/12/05 06:13:55;;;;;;;2.30;1.53;;;;;;;8.74;100.00;96249.69;5071019;28;20787;-53
2022/12/05 06:16:24;;;;;;;1.17;0.67;;;;;;;8.75;100.00;96243.38;5071271;28;20457;-53
2022/12/05 06:18:53;;;;;;;3.10;2.90;;;;;;;8.63;100.00;96246.03;5071577;28;20485;-53
2022/12/05 06:21:22;;;;;;;1.70;1.60;;;;;;;8.79;100.00;96247.13;5071277;28;20509;-53
2022/12/05 06:23:51;;;;;;;1.47;1.40;;;;;;;8.98;100.00;96248.53;5070225;28;20438;-53
2022/12/05 06:26:21;;;;;;;2.47;1.57;;;;;;;8.69;100.00;96194.88;5071041;28;20426;-53
2022/12/05 06:28:49;;;;;;;5.70;1.07;;;;;;;9.07;100.00;96254.28;5071777;28;20908;-54
2022/12/05 06:31:22;;;;;;;2.00;1.37;;;;;;;8.66;100.00;96258.78;5071479;28;20435;-54
2022/12/05 06:33:51;;;;;;;1.67;1.57;;;;;;;8.54;100.00;96239.50;5071400;28;20431;-53
2022/12/05 06:36:21;;;;;;;2.00;1.90;;;;;;;9.02;100.00;96262.91;5071660;28;20899;-53
2022/12/05 06:38:49;;;;;;;1.53;1.43;;;;;;;9.10;100.00;96254.59;5071642;28;20470;-53
2022/12/05 06:41:19;;;;;;;3.47;3.27;;;;;;;9.12;100.00;96257.00;5071306;28;20879;-54
2022/12/05 06:43:48;;;;;;;5.13;1.80;;;;;;;9.26;100.00;96263.63;5070827;28;20449;-55
2022/12/05 06:46:16;;;;;;;1.50;1.40;;;;;;;9.41;100.00;96251.44;5070291;28;20434;-54
2022/12/05 06:48:46;;;;;;;1.80;1.70;;;;;;;9.61;100.00;96258.94;5071486;28;20432;-54
2022/12/05 06:51:16;;;;;;;3.17;2.87;;;;;;;7.98;100.00;96089.66;5071224;28;21002;-54
2022/12/05 06:53:45;;;;;;;2.80;2.70;;;;;;;9.34;100.00;96256.09;5071374;28;20502;-53
2022/12/05 06:56:15;;;;;;;3.30;3.10;;;;;;;9.30;100.00;96230.34;5071193;28;20527;-53
2022/12/05 06:58:45;;;;;;;3.53;3.20;;;;;;;9.49;100.00;96256.34;5071201;28;20555;-54
2022/12/05 07:04:02;;;;;;;0.90;0.90;;;;;;;9.72;100.00;96258.03;5069020;28;20434;-54
2022/12/05 07:06:30;;;;;;;1.37;1.37;;;;;;;10.03;100.00;96254.84;5068951;28;20445;-54
2022/12/05 07:08:59;;;;;;;0.97;0.97;;;;;;;9.76;100.00;96248.59;5069391;28;20450;-54
2022/12/05 07:11:27;;;;;;;1.00;1.00;;;;;;;9.48;100.00;96261.91;5070306;28;20429;-54
2022/12/05 07:13:55;;;;;;;4.23;1.03;;;;;;;9.67;100.00;96263.25;5070582;28;20443;-54
2022/12/05 07:16:24;;;;;;;2.13;1.93;;;;;;;9.66;100.00;96271.44;5070964;28;20438;-54
2022/12/05 07:18:52;;;;;;;1.27;1.17;;;;;;;9.68;100.00;96267.53;5070753;28;20844;-53
2022/12/05 07:21:22;;;;;;;2.67;2.47;;;;;;;9.40;100.00;96265.72;5072855;28;20435;-53
2022/12/05 07:23:51;;;;;;;1.53;1.43;;;;;;;9.57;100.00;96263.91;5074328;28;20518;-54
2022/12/05 07:26:21;;;;;;;0.63;0.63;;;;;;;9.73;100.00;96267.59;5074569;28;20430;-54
2022/12/05 07:28:50;;;;;;;0.70;0.70;;;;;;;9.85;100.00;96273.63;5074656;28;20432;-55
2022/12/05 07:31:21;;;;;;;1.60;1.50;;;;;;;9.88;100.00;96272.34;5074530;28;20850;-55
2022/12/05 07:33:50;;;;;;;0.93;0.90;;;;;;;9.65;100.00;96268.00;5074275;28;20988;-54
2022/12/05 07:36:21;;;;;;;1.53;1.50;;;;;;;9.57;100.00;96282.44;5074628;28;20427;-54
2022/12/05 07:38:56;;;;;;;1.73;1.67;;;;;;;9.80;100.00;96270.09;5074477;28;20476;-54
2022/12/05 07:41:27;;;;;;;2.53;0.93;;;;;;;9.85;100.00;96278.91;5074246;28;20431;-54
2022/12/05 07:43:58;;;;;;;2.03;2.00;;;;;;;10.05;100.00;96276.59;5074491;28;20449;-54
2022/12/05 07:46:28;;;;;;;2.87;1.63;;;;;;;10.10;100.00;96281.94;5074145;28;20571;-54
2022/12/05 07:48:57;;;;;;;1.13;0.70;;;;;;;10.13;100.00;96283.34;5074126;28;20433;-54
2022/12/05 07:51:25;;;;;;;1.03;1.03;;;;;;;10.03;100.00;96275.22;5073858;28;20434;-54
2022/12/05 07:53:55;;;;;;;0.90;0.90;;;;;;;10.13;100.00;96281.50;5074202;28;20417;-54
2022/12/05 07:56:23;;;;;;;0.57;0.40;;;;;;;10.20;100.00;96265.44;5074152;28;20434;-53
2022/12/05 07:58:52;;;;;;;2.10;0.90;;;;;;;10.24;100.00;96271.06;5073946;28;20500;-53
2022/12/05 08:01:23;;;;;;;5.13;1.73;;;;;;;9.83;100.00;96281.00;5073829;28;20440;-53
2022/12/05 08:03:53;;;;;;;0.80;0.80;;;;;;;9.89;100.00;96282.66;5073861;28;20431;-53
2022/12/05 08:06:23;;;;;;;1.80;1.70;;;;;;;10.12;100.00;96277.25;5073963;28;20494;-53
2022/12/05 08:08:53;;;;;;;6.23;1.70;;;;;;;9.96;100.00;96285.19;5074099;28;20503;-53
2022/12/05 08:11:24;;;;;;;4.97;1.20;;;;;;;10.14;100.00;96277.78;5073987;28;20523;-53
2022/12/05 08:13:53;;;;;;;1.03;0.93;;;;;;;10.05;100.00;96284.53;5074258;28;20770;-53
2022/12/05 08:16:24;;;;;;;4.20;1.27;;;;;;;9.62;100.00;96204.13;5073400;28;20516;-53
2022/12/05 08:18:54;;;;;;;4.63;0.70;;;;;;;10.20;100.00;96287.44;5073675;28;20466;-54
2022/12/05 08:21:24;;;;;;;1.30;0.50;;;;;;;10.18;100.00;96284.22;5073474;28;20821;-54
2022/12/05 08:23:52;;;;;;;0.70;0.70;;;;;;;10.19;100.00;96283.16;5073362;28;20459;-54
2022/12/05 08:26:25;;;;;;;0.97;0.97;;;;;;;10.00;100.00;96281.81;5073250;28;20451;-54
2022/12/05 08:28:55;;;;;;;1.07;1.07;;;;;;;10.18;100.00;96278.94;5073195;28;20429;-53
2022/12/05 08:31:25;;;;;;;1.90;1.27;;;;;;;10.38;100.00;96275.75;5073333;28;20432;-54
2022/12/05 08:33:57;;;;;;;1.60;1.07;;;;;;;10.47;100.00;96274.31;5072411;28;20436;-54
2022/12/05 08:36:30;;;;;;;1.83;1.73;;;;;;;10.01;100.00;96193.38;5073339;28;20416;-54
2022/12/05 08:38:59;;;;;;;1.37;1.37;;;;;;;10.49;100.00;96266.09;5073037;28;20532;-54
2022/12/05 08:41:29;;;;;;;3.87;0.90;;;;;;;10.54;100.00;96271.47;5073120;28;20417;-54
2022/12/05 08:44:01;;;;;;;1.60;0.80;;;;;;;10.05;100.00;96281.06;5073263;28;20815;-53
2022/12/05 08:46:30;;;;;;;2.20;2.10;;;;;;;9.51;100.00;96209.28;5073380;28;20425;-54
2022/12/05 08:48:59;;;;;;;2.20;2.10;;;;;;;9.90;100.00;96307.31;5072956;28;21003;-54
2022/12/05 08:51:27;;;;;;;1.23;1.23;;;;;;;10.06;100.00;96267.59;5072820;28;20417;-54
2022/12/05 08:53:56;;;;;;;0.90;0.90;;;;;;;10.12;100.00;96277.25;5073255;28;20444;-53
2022/12/05 08:56:24;;;;;;;1.80;1.70;;;;;;;10.26;100.00;96263.66;5072863;28;20446;-54
2022/12/05 08:58:56;;;;;;;3.53;1.23;;;;;;;10.32;100.00;96263.50;5072941;28;20505;-54
2022/12/05 09:01:35;;;;;;;1.27;0.60;;;;;;;10.20;100.00;96255.63;5072859;28;20426;-53
2022/12/05 09:04:05;;;;;;;1.03;1.03;;;;;;;10.08;100.00;96268.16;5072936;28;20456;-53
2022/12/05 09:06:34;;;;;;;0.53;0.50;;;;;;;9.99;100.00;96266.94;5072753;28;20520;-54
2022/12/05 09:09:06;;;;;;;1.13;1.07;;;;;;;10.22;100.00;96259.91;5073081;28;20859;-54
2022/12/05 09:11:36;;;;;;;1.10;1.00;;;;;;;10.30;100.00;96264.75;5072817;28;20432;-54
2022/12/05 09:14:07;;;;;;;5.47;2.70;;;;;;;10.33;100.00;96253.69;5072621;28;20498;-53
2022/12/05 09:16:36;;;;;;;2.60;2.47;;;;;;;10.23;100.00;96261.50;5072341;28;20422;-53
2022/12/05 09:19:11;;;;;;;5.53;5.03;;;;;;;9.68;100.00;96258.78;5072329;28;20562;-53
2022/12/05 09:21:39;;;;;;;9.60;4.83;;;;;;;9.55;100.00;96251.94;5072302;28;20927;-53
2022/12/05 09:24:07;;;;;;;11.93;2.03;;;;;;;9.44;100.00;96256.25;5072215;28;20443;-53
2022/12/05 09:26:36;;;;;;;1.40;1.40;;;;;;;9.55;100.00;96246.66;5072221;28;21068;-53
2022/12/05 09:29:04;;;;;;;1.33;1.33;;;;;;;9.65;100.00;96246.81;5072147;28;20447;-53
2022/12/05 09:31:34;;;;;;;3.80;3.60;;;;;;;9.96;100.00;96246.25;5072109;28;20417;-53
2022/12/05 09:34:02;;;;;;;3.33;1.07;;;;;;;10.03;100.00;96222.25;5072325;28;20460;-53
2022/12/05 09:36:32;;;;;;;5.70;2.53;;;;;;;9.91;100.00;96232.94;5072304;28;20439;-53
2022/12/05 09:39:01;;;;;;;3.47;3.27;;;;;;;9.90;100.00;96236.63;5072322;28;20436;-54
2022/12/05 09:42:07;;;;;;;4.60;1.70;;;;;;;9.92;100.00;96241.66;5072033;28;21012;-53
2022/12/05 09:44:57;;;;;;;2.87;2.77;;;;;;;10.13;100.00;96236.47;5054095;28;21005;-53
2022/12/05 09:47:36;;;;;;;6.67;4.80;;;;;;;9.89;100.00;96210.41;5072034;28;20459;-53
2022/12/05 09:50:14;;;;;;;9.00;1.87;;;;;;;10.30;100.00;96225.00;5071921;28;20435;-54
2022/12/05 09:52:49;;;;;;;3.53;1.37;;;;;;;10.71;100.00;96222.66;5071625;28;20479;-54
2022/12/05 09:55:20;;;;;;;1.27;1.27;;;;;;;10.55;100.00;96225.38;5071804;28;20435;-54
2022/12/05 09:57:53;;;;;;;2.90;1.90;;;;;;;10.41;100.00;96200.25;5072023;28;20479;-55
2022/12/05 10:00:21;;;;;;;2.70;2.50;;;;;;;10.35;100.00;96214.53;5072168;28;20473;-55
2022/12/05 10:02:58;;;;;;;5.03;1.63;;;;;;;10.34;100.00;96215.56;5071426;28;20517;-53
2022/12/05 10:05:35;;;;;;;2.27;2.17;;;;;;;10.41;100.00;96203.72;5071549;28;20520;-53
2022/12/05 10:08:13;;;;;;;4.67;4.47;;;;;;;10.35;100.00;96210.00;5071542;28;20457;-53
2022/12/05 10:10:49;;;;;;;1.67;1.57;;;;;;;10.10;100.00;96201.69;5071549;28;20433;-54
2022/12/05 10:13:30;;;;;;;2.20;2.10;;;;;;;10.28;100.00;96203.28;5072006;28;20491;-53
2022/12/05 10:16:03;;;;;;;5.83;1.13;;;;;;;10.33;100.00;96198.84;5071754;28;20519;-54
2022/12/05 10:18:39;;;;;;;2.23;1.43;;;;;;;10.26;100.00;96182.34;5071571;28;20438;-54
2022/12/05 10:21:15;;;;;;;2.03;1.93;;;;;;;10.53;100.00;96195.63;5071748;28;20582;-54
2022/12/05 10:23:52;;;;;;;2.87;2.77;;;;;;;10.64;100.00;96194.72;5071582;28;20457;-54
2022/12/05 10:26:30;;;;;;;0.97;0.97;;;;;;;10.88;100.00;96192.59;5071586;28;20933;-56
2022/12/05 10:29:08;;;;;;;3.03;2.83;;;;;;;10.60;100.00;96190.97;5071488;28;21000;-55
2022/12/05 10:31:39;;;;;;;3.53;2.67;;;;;;;10.51;100.00;96187.13;5071160;28;20474;-55
2022/12/05 10:34:17;;;;;;;3.90;1.17;;;;;;;10.73;100.00;96174.66;5070436;28;20929;-55
2022/12/05 10:36:55;;;;;;;1.83;1.67;;;;;;;10.60;100.00;96178.50;5070378;28;20504;-55
2022/12/05 10:39:24;;;;;;;2.40;2.30;;;;;;;11.09;100.00;96178.47;5071688;28;20438;-54
2022/12/05 10:41:52;;;;;;;4.80;1.33;;;;;;;11.01;100.00;96179.72;5071094;28;20832;-54
2022/12/05 10:44:20;;;;;;;2.40;1.80;;;;;;;10.99;100.00;96168.56;5070618;28;20432;-54
2022/12/05 10:46:49;;;;;;;1.67;1.57;;;;;;;11.13;100.00;96174.28;5070489;28;20444;-54
2022/12/05 10:49:20;;;;;;;1.67;1.57;;;;;;;10.75;100.00;96164.63;5071013;28;20430;-54
2022/12/05 10:51:49;;;;;;;2.87;1.43;;;;;;;10.53;100.00;96163.81;5070323;28;20473;-53
2022/12/05 10:54:20;;;;;;;1.57;1.47;;;;;;;10.93;100.00;96164.25;5070926;28;20546;-54
2022/12/05 10:56:50;;;;;;;1.93;0.97;;;;;;;11.09;100.00;96162.56;5073886;28;20511;-55
2022/12/05 10:59:21;;;;;;;2.63;2.10;;;;;;;11.56;100.00;96160.81;5074981;28;20440;-55
2022/12/05 11:01:52;;;;;;;0.97;0.97;;;;;;;11.77;100.00;96156.50;5075110;28;20900;-55
2022/12/05 11:04:26;;;;;;;1.13;0.93;;;;;;;11.70;100.00;96159.38;5074903;28;20862;-56
2022/12/05 11:06:58;;;;;;;3.00;0.60;;;;;;;11.94;100.00;96149.97;5074837;28;20473;-55
2022/12/05 11:09:28;;;;;;;6.43;1.00;;;;;;;11.82;100.00;96151.22;5075062;28;20437;-55
2022/12/05 11:12:16;;;;;;;0.90;0.90;;;;;;;11.88;100.00;96147.53;5074477;28;20952;-55
2022/12/05 11:15:00;;;;;;;6.20;1.07;;;;;;;11.93;100.00;96150.22;5074705;28;20423;-55
2022/12/05 11:17:33;;;;;;;1.33;1.10;;;;;;;11.34;100.00;96152.97;5075031;28;20939;-55
2022/12/05 11:20:04;;;;;;;1.80;1.30;;;;;;;11.05;100.00;96119.03;5074342;28;20433;-55
2022/12/05 11:22:34;;;;;;;1.43;1.43;;;;;;;11.42;100.00;96149.84;5074462;28;20447;-55
2022/12/05 11:25:30;;;;;;;1.07;0.80;;;;;;;11.77;100.00;96148.53;5074276;28;20418;-55
2022/12/05 11:28:00;;;;;;;0.60;0.47;;;;;;;11.77;100.00;96138.72;5074614;28;20438;-55
2022/12/05 11:30:30;;;;;;;0.90;0.90;;;;;;;11.69;100.00;96136.53;5074548;28;20511;-55
2022/12/05 11:33:12;;;;;;;2.27;2.17;;;;;;;11.52;100.00;96129.75;5074554;28;20933;-54
2022/12/05 11:35:40;;;;;;;12.73;0.90;;;;;;;11.45;100.00;96140.59;5074496;28;20539;-55
2022/12/05 11:38:12;;;;;;;0.80;0.80;;;;;;;11.07;100.00;96133.63;5074694;28;20425;-55
2022/12/05 11:40:51;;;;;;;2.43;2.23;;;;;;;11.27;100.00;96131.16;5074573;28;20465;-56
2022/12/05 11:43:40;;;;;;;6.03;2.53;;;;;;;11.25;100.00;96124.50;5074345;28;20427;-55
2022/12/05 11:46:20;;;;;;;2.30;2.10;;;;;;;11.15;100.00;96080.13;5074468;28;20456;-55
2022/12/05 11:49:08;;;;;;;0.80;0.80;;;;;;;11.53;100.00;96120.72;5074536;28;20829;-55
2022/12/05 11:51:40;;;;;;;2.63;1.17;;;;;;;11.25;100.00;96119.19;5073362;28;20436;-55
2022/12/05 11:54:40;;;;;;;2.27;2.17;;;;;;;10.94;100.00;96118.13;5074169;28;20488;-55
2022/12/05 11:57:44;;;;;;;0.70;0.70;;;;;;;11.05;100.00;96114.53;5074078;28;20814;-55
2022/12/05 12:00:22;;;;;;;0.87;0.87;;;;;;;11.38;100.00;96114.25;5074384;28;20445;-55